DOVO2: Cimarron River, Dover, OK

Data processed at Wed May 22 2019 23:50


All information presented herein is the property of the government of the United States of America and may be revised or deleted at any time without prior notice.
Dissemination of this information without the expressed written consent of the Public Affairs Office, Tulsa District U.S. Army Corps of Engineers is strictly prohibited.
These data are gathered electronically and, as presented, have not undergone any form of quality control. These data are not guaranteed to be valid or correct.
Go to home page.
Go to station list.
Go to home page.

Upstream stations:

Downstream station:
Previous Day
Next Day
Current Day
    
SHEF ID:       DOVO2     Cimarron River near Dover, OK
STATION TYPE:  
Regulating: Stage =    17.00, Flow =     9323

               PRECIP     STAGE  RIV-FLOW  BAT-LOAD
                   in        ft       cfs      volt
              Ccp-Rev   Ccp-Rev   Ccp-Rev   Ccp-Rev
(US/Central)
05/22 00:00      0.00     21.77     41507     12.65
05/22 01:00      0.00     21.79     41761     12.57
05/22 02:00      0.00     21.95     43836     12.57
05/22 03:00      0.00     22.11     45958     12.57
05/22 04:00      0.00     22.12     46092     12.57
05/22 05:00      0.00     21.96     43968     12.57
05/22 06:00      0.00     21.95     43836     12.57
05/22 07:00      0.00     21.84     42401     12.57
05/22 08:00      0.00     21.87     42789     12.73
05/22 09:00      0.00     21.75     41254     13.21
05/22 10:00      0.00     21.75     41254     13.53
05/22 11:00      0.00     21.71     40752     13.53
05/22 12:00      0.00     21.71     40752     13.37
05/22 13:00      0.00     21.59     39274     13.37
05/22 14:00      0.00     21.63     39762     13.29
05/22 15:00      0.00     21.52     38431     13.29
05/22 16:00      0.00     21.42     37250     13.29
05/22 17:00      0.00     21.35     36440     13.21
05/22 18:00      0.26     21.12     33873     13.05
05/22 19:00      0.01     20.99     32490     13.21
05/22 20:00      0.00     20.82     30819     12.97
05/22 21:00      0.00     20.62     28937     12.65
05/22 22:00      0.00     20.41     27110     12.65
05/22 23:00      0.00     20.17     25207     12.65